Time;durP1;ratioP1;P1;durP2;ratioP2;P2;SDS_P1;SDS_P2;PMS_P1;PMS_P2;Temp;Humidity;BMP_temperature;BMP_pressure;BME280_temperature;BME280_humidity;BME280_pressure;Samples;Min_cycle;Max_cycle;Signal;HPM_P1;HPM_P2
2023/06/13 00:02:22;;;;;;;;;;;;;;;19.93;nan;100057.44;5053817;28;19917;-79
2023/06/13 00:04:48;;;;;;;;;;;;;;;19.89;nan;100060.78;5052010;28;20024;-78
2023/06/13 00:07:13;;;;;;;;;;;;;;;19.91;nan;100053.34;5048440;28;19929;-78
2023/06/13 00:09:38;;;;;;;;;;;;;;;19.96;nan;100061.53;5048269;28;20015;-78
2023/06/13 00:12:03;;;;;;;;;;;;;;;19.98;nan;100059.44;5052215;28;19921;-78
2023/06/13 00:14:29;;;;;;;;;;;;;;;20.04;nan;100053.16;5050941;28;19921;-79
2023/06/13 00:16:54;;;;;;;;;;;;;;;20.10;nan;100063.00;5052525;28;19951;-78
2023/06/13 00:19:20;;;;;;;;;;;;;;;20.08;nan;100059.72;5052138;28;20007;-79
2023/06/13 00:21:46;;;;;;;;;;;;;;;20.08;nan;100065.09;5054421;28;19921;-78
2023/06/13 00:24:11;;;;;;;;;;;;;;;20.09;nan;100053.34;5054666;28;20301;-77
2023/06/13 00:26:36;;;;;;;;;;;;;;;20.07;nan;100055.41;5053165;28;19921;-80
2023/06/13 00:29:02;;;;;;;;;;;;;;;20.05;nan;100062.88;5053895;28;20018;-78
2023/06/13 00:31:28;;;;;;;;;;;;;;;19.97;nan;100052.44;5054579;28;19924;-80
2023/06/13 00:33:54;;;;;;;;;;;;;;;19.90;nan;100057.06;5054135;28;19924;-77
2023/06/13 00:36:20;;;;;;;;;;;;;;;19.79;nan;100047.91;5052119;28;19947;-79
2023/06/13 00:38:47;;;;;;;;;;;;;;;19.74;nan;100053.13;5053504;28;19923;-80
2023/06/13 00:41:13;;;;;;;;;;;;;;;19.77;nan;100055.34;5055280;28;19917;-78
2023/06/13 00:43:38;;;;;;;;;;;;;;;19.81;nan;100042.34;5053349;28;19924;-79
2023/06/13 00:46:03;;;;;;;;;;;;;;;19.77;nan;100047.31;5058299;28;19957;-79
2023/06/13 00:48:28;;;;;;;;;;;;;;;19.78;nan;100032.84;5057281;28;20293;-78
2023/06/13 00:50:54;;;;;;;;;;;;;;;19.79;nan;100055.97;5045313;28;19917;-78
2023/06/13 00:53:21;;;;;;;;;;;;;;;19.72;nan;100044.47;5057331;28;20507;-79
2023/06/13 00:55:47;;;;;;;;;;;;;;;19.66;nan;100048.84;5057341;28;19924;-79
2023/06/13 00:58:13;;;;;;;;;;;;;;;19.63;nan;100051.97;5055181;28;20002;-78
2023/06/13 01:00:39;;;;;;;;;;;;;;;19.57;nan;100046.66;5056346;28;20422;-82
2023/06/13 01:03:09;;;;;;;;;;;;;;;19.51;nan;100059.09;5059364;28;19917;-81
2023/06/13 01:05:34;;;;;;;;;;;;;;;19.45;nan;100043.91;5059437;28;20281;-78
2023/06/13 01:08:01;;;;;;;;;;;;;;;19.40;nan;100054.47;5058632;28;20003;-80
2023/06/13 01:10:26;;;;;;;;;;;;;;;;;;5056918;28;19929;-79
2023/06/13 01:13:00;;;;;;;;;;;;;;;19.33;nan;100040.31;5060573;28;20193;-78
2023/06/13 01:15:25;;;;;;;;;;;;;;;19.27;nan;100047.38;5062827;28;19921;-79
2023/06/13 01:17:57;;;;;;;;;;;;;;;19.22;nan;100040.00;5065409;28;19928;-79
2023/06/13 01:20:23;;;;;;;;;;;;;;;19.16;nan;100040.88;5060359;28;19929;-78
2023/06/13 01:23:03;;;;;;;;;;;;;;;19.10;nan;100041.78;5057604;28;19960;-79
2023/06/13 01:25:39;;;;;;;;;;;;;;;19.06;nan;100029.84;5057690;28;19997;-78
2023/06/13 01:28:06;;;;;;;;;;;;;;;18.98;nan;100027.44;5057506;28;20382;-79
2023/06/13 01:30:32;;;;;;;;;;;;;;;18.89;nan;100022.34;5056624;28;19935;-78
2023/06/13 01:32:58;;;;;;;;;;;;;;;18.80;nan;100020.16;5049152;28;19929;-78
2023/06/13 01:35:24;;;;;;;;;;;;;;;18.73;nan;100019.34;5056271;28;20457;-78
2023/06/13 01:37:50;;;;;;;;;;;;;;;18.67;nan;100011.16;5057338;28;19920;-79
2023/06/13 01:40:15;;;;;;;;;;;;;;;18.61;nan;100011.19;5055959;28;20029;-80
2023/06/13 01:42:40;;;;;;;;;;;;;;;;;;5055447;28;19921;-79
2023/06/13 01:45:06;;;;;;;;;;;;;;;18.52;nan;100008.00;5046322;28;19917;-78
2023/06/13 01:47:34;;;;;;;;;;;;;;;18.56;nan;100003.81;5055114;28;19948;-78
2023/06/13 01:50:02;;;;;;;;;;;;;;;18.48;nan;100014.81;5047118;28;19925;-79
2023/06/13 01:52:50;;;;;;;;;;;;;;;18.47;nan;100010.47;5049599;28;19932;-79
2023/06/13 01:55:20;;;;;;;;;;;;;;;18.45;nan;100009.91;5046162;28;20321;-78
2023/06/13 01:57:51;;;;;;;;;;;;;;;18.39;nan;100008.06;5059533;28;19920;-79
2023/06/13 02:00:16;;;;;;;;;;;;;;;;;;5060133;28;19920;-78
2023/06/13 02:02:42;;;;;;;;;;;;;;;18.30;nan;99998.66;5062177;28;19927;-77
2023/06/13 02:05:08;;;;;;;;;;;;;;;18.23;nan;99994.16;5067618;28;19928;-78
2023/06/13 02:07:36;;;;;;;;;;;;;;;18.17;nan;99988.84;5063401;28;19982;-79
2023/06/13 02:10:04;;;;;;;;;;;;;;;18.15;nan;99989.06;5054618;28;19921;-80
2023/06/13 02:12:30;;;;;;;;;;;;;;;18.16;nan;99984.53;5046420;28;20348;-79
2023/06/13 02:14:56;;;;;;;;;;;;;;;18.11;nan;99979.81;5054113;28;19966;-79
2023/06/13 02:17:21;;;;;;;;;;;;;;;18.07;nan;99983.13;5058333;28;19917;-80
2023/06/13 02:19:47;;;;;;;;;;;;;;;18.06;nan;99970.78;5063542;28;19921;-77
2023/06/13 02:22:12;;;;;;;;;;;;;;;18.09;nan;99973.03;5065412;28;19929;-79
2023/06/13 02:24:37;;;;;;;;;;;;;;;18.09;nan;99975.72;5059429;28;20424;-79
2023/06/13 02:27:02;;;;;;;;;;;;;;;18.15;nan;99975.69;5056141;28;19921;-80
2023/06/13 02:29:27;;;;;;;;;;;;;;;18.19;nan;99979.56;5057292;28;19921;-81
2023/06/13 02:31:53;;;;;;;;;;;;;;;18.25;nan;99970.66;5057225;28;19923;-80
2023/06/13 02:34:18;;;;;;;;;;;;;;;18.23;nan;99967.41;5051130;28;19989;-79
2023/06/13 02:36:43;;;;;;;;;;;;;;;18.24;nan;99973.56;5056417;28;19924;-79
2023/06/13 02:39:09;;;;;;;;;;;;;;;18.21;nan;99965.97;5055884;28;20421;-80
2023/06/13 02:41:35;;;;;;;;;;;;;;;18.13;nan;99960.88;5056327;28;19929;-81
2023/06/13 02:44:00;;;;;;;;;;;;;;;18.20;nan;99973.16;5061926;28;20280;-78
2023/06/13 02:46:25;;;;;;;;;;;;;;;18.22;nan;99971.09;5062498;28;19952;-79
2023/06/13 02:48:50;;;;;;;;;;;;;;;18.26;nan;99963.47;5055227;28;19931;-80
2023/06/13 02:51:16;;;;;;;;;;;;;;;18.25;nan;99965.31;5057634;28;19942;-79
2023/06/13 02:53:42;;;;;;;;;;;;;;;18.25;nan;99976.00;5063132;28;20270;-81
2023/06/13 02:56:07;;;;;;;;;;;;;;;18.18;nan;99969.88;5057544;28;19924;-81
2023/06/13 02:58:32;;;;;;;;;;;;;;;18.10;nan;99978.19;5068303;28;19947;-81
2023/06/13 03:00:57;;;;;;;;;;;;;;;18.07;nan;99972.41;5056855;28;19936;-79
2023/06/13 03:03:23;;;;;;;;;;;;;;;17.95;nan;99981.16;5064130;28;19952;-79
2023/06/13 03:05:49;;;;;;;;;;;;;;;17.93;nan;99967.16;5072040;28;20301;-79
2023/06/13 03:08:18;;;;;;;;;;;;;;;17.95;nan;99975.78;5057897;28;20010;-79
2023/06/13 03:10:43;;;;;;;;;;;;;;;17.95;nan;99954.41;5052663;28;19928;-80
2023/06/13 03:13:08;;;;;;;;;;;;;;;17.94;nan;99973.31;5061568;28;19924;-79
2023/06/13 03:15:34;;;;;;;;;;;;;;;17.89;nan;99970.47;5065994;28;20007;-79
2023/06/13 03:17:59;;;;;;;;;;;;;;;17.82;nan;99981.19;5057525;28;19921;-76
2023/06/13 03:20:24;;;;;;;;;;;;;;;17.80;nan;99983.22;5061828;28;19959;-80
2023/06/13 03:22:49;;;;;;;;;;;;;;;17.75;nan;99983.84;5058812;28;19944;-79
2023/06/13 03:25:16;;;;;;;;;;;;;;;17.77;nan;99963.06;5055205;28;19921;-80
2023/06/13 03:27:41;;;;;;;;;;;;;;;17.72;nan;99981.63;5054916;28;20444;-79
2023/06/13 03:30:07;;;;;;;;;;;;;;;17.69;nan;99987.41;5054234;28;19921;-79
2023/06/13 03:32:32;;;;;;;;;;;;;;;17.71;nan;99984.50;5055848;28;19916;-79
2023/06/13 03:34:58;;;;;;;;;;;;;;;17.72;nan;99992.31;5056057;28;19969;-79
2023/06/13 03:37:23;;;;;;;;;;;;;;;17.74;nan;99992.13;5055808;28;19923;-79
2023/06/13 03:39:48;;;;;;;;;;;;;;;17.73;nan;99953.88;5058015;28;19935;-81
2023/06/13 03:42:14;;;;;;;;;;;;;;;17.66;nan;99971.75;5045318;28;19917;-80
2023/06/13 03:44:41;;;;;;;;;;;;;;;17.63;nan;99989.03;5036555;28;19986;-81
2023/06/13 03:47:06;;;;;;;;;;;;;;;17.57;nan;99995.25;5054695;28;19927;-79
2023/06/13 03:49:31;;;;;;;;;;;;;;;17.60;nan;99997.50;5043937;28;20454;-81
2023/06/13 03:51:56;;;;;;;;;;;;;;;17.64;nan;99989.88;5051983;28;19992;-79
2023/06/13 03:54:22;;;;;;;;;;;;;;;17.71;nan;99987.16;5054168;28;19920;-81
2023/06/13 03:56:47;;;;;;;;;;;;;;;17.66;nan;99992.34;5054527;28;20378;-81
2023/06/13 03:59:12;;;;;;;;;;;;;;;17.69;nan;99997.28;5055086;28;20430;-78
2023/06/13 04:01:38;;;;;;;;;;;;;;;17.74;nan;100005.50;5054811;28;19920;-81
2023/06/13 04:04:03;;;;;;;;;;;;;;;17.80;nan;100004.63;5054745;28;19944;-79
2023/06/13 04:06:28;;;;;;;;;;;;;;;17.77;nan;100003.19;5059009;28;19924;-80
2023/06/13 04:08:54;;;;;;;;;;;;;;;17.85;nan;100018.22;5060124;28;20019;-78
2023/06/13 04:11:19;;;;;;;;;;;;;;;17.87;nan;100016.16;5050574;28;19928;-80
2023/06/13 04:13:44;;;;;;;;;;;;;;;17.81;nan;100008.97;5055024;28;19921;-80
2023/06/13 04:16:10;;;;;;;;;;;;;;;17.75;nan;100007.13;5055366;28;20306;-80
2023/06/13 04:18:37;;;;;;;;;;;;;;;17.75;nan;100023.97;5053483;28;19932;-79
2023/06/13 04:21:02;;;;;;;;;;;;;;;17.80;nan;100023.34;5046271;28;19948;-79
2023/06/13 04:23:28;;;;;;;;;;;;;;;17.80;nan;100031.38;5053950;28;19932;-78
2023/06/13 04:25:54;;;;;;;;;;;;;;;17.79;nan;100030.56;5061457;28;19978;-81
2023/06/13 04:28:19;;;;;;;;;;;;;;;17.85;nan;100034.25;5053615;28;20078;-81
2023/06/13 04:30:47;;;;;;;;;;;;;;;17.87;nan;100034.06;5047863;28;19929;-80
2023/06/13 04:33:16;;;;;;;;;;;;;;;17.84;nan;100032.63;5053472;28;19928;-79
2023/06/13 04:35:44;;;;;;;;;;;;;;;17.90;nan;100047.84;5059427;28;20316;-80
2023/06/13 04:38:10;;;;;;;;;;;;;;;17.87;nan;100042.88;5065517;28;19924;-79
2023/06/13 04:40:37;;;;;;;;;;;;;;;17.92;nan;100042.25;5067234;28;19921;-80
2023/06/13 04:43:04;;;;;;;;;;;;;;;17.96;nan;100040.81;5062979;28;19920;-80
2023/06/13 04:45:30;;;;;;;;;;;;;;;17.99;nan;100051.91;5060915;28;19947;-81
2023/06/13 04:47:57;;;;;;;;;;;;;;;18.00;nan;100053.56;5048936;28;19920;-78
2023/06/13 04:50:22;;;;;;;;;;;;;;;18.04;nan;100053.94;5055904;28;19921;-81
2023/06/13 04:52:52;;;;;;;;;;;;;;;18.10;nan;100063.00;5061309;28;19927;-80
2023/06/13 04:55:17;;;;;;;;;;;;;;;18.16;nan;100048.75;5052822;28;19924;-80
2023/06/13 04:57:43;;;;;;;;;;;;;;;18.13;nan;100062.56;5051678;28;19928;-79
2023/06/13 05:00:09;;;;;;;;;;;;;;;18.17;nan;100069.94;5053546;28;19920;-79
2023/06/13 05:02:35;;;;;;;;;;;;;;;18.23;nan;100079.81;5054292;28;20309;-79
2023/06/13 05:05:00;;;;;;;;;;;;;;;18.27;nan;100077.50;5053290;28;19921;-81
2023/06/13 05:07:28;;;;;;;;;;;;;;;18.35;nan;100084.47;5051873;28;19921;-80
2023/06/13 05:09:53;;;;;;;;;;;;;;;18.41;nan;100080.94;5061006;28;20293;-81
2023/06/13 05:12:19;;;;;;;;;;;;;;;18.44;nan;100085.88;5048443;28;19921;-80
2023/06/13 05:14:45;;;;;;;;;;;;;;;18.50;nan;100086.88;5033853;28;20395;-81
2023/06/13 05:17:12;;;;;;;;;;;;;;;18.59;nan;100097.13;5033075;28;19925;-78
2023/06/13 05:19:37;;;;;;;;;;;;;;;18.66;nan;100089.88;5033687;28;19939;-80
2023/06/13 05:22:05;;;;;;;;;;;;;;;18.67;nan;100091.50;5034329;28;20012;-81
2023/06/13 05:24:30;;;;;;;;;;;;;;;18.77;nan;100101.78;5032729;28;19925;-80
2023/06/13 05:26:56;;;;;;;;;;;;;;;18.82;nan;100093.91;5046407;28;19924;-80
2023/06/13 05:29:21;;;;;;;;;;;;;;;18.91;nan;100096.34;5056112;28;19921;-81
2023/06/13 05:31:46;;;;;;;;;;;;;;;18.92;nan;100104.13;5060004;28;19966;-81
2023/06/13 05:34:11;;;;;;;;;;;;;;;18.99;nan;100104.09;5072788;28;19956;-80
2023/06/13 05:36:37;;;;;;;;;;;;;;;19.06;nan;100099.50;5057747;28;19924;-79
2023/06/13 05:39:02;;;;;;;;;;;;;;;19.14;nan;100096.56;5062877;28;20008;-78
2023/06/13 05:41:27;;;;;;;;;;;;;;;19.24;nan;100110.31;5056944;28;19924;-79
2023/06/13 05:43:52;;;;;;;;;;;;;;;19.40;nan;100103.56;5053697;28;19921;-79
2023/06/13 05:46:17;;;;;;;;;;;;;;;19.61;nan;100112.25;5054008;28;19924;-77
2023/06/13 05:48:43;;;;;;;;;;;;;;;19.90;nan;100114.25;5055419;28;19974;-80
2023/06/13 05:51:08;;;;;;;;;;;;;;;20.21;nan;100106.25;5055469;28;19952;-77
2023/06/13 05:53:33;;;;;;;;;;;;;;;20.59;nan;100124.78;5053486;28;20400;-77
2023/06/13 05:55:58;;;;;;;;;;;;;;;21.03;nan;100108.47;5052776;28;20309;-78
2023/06/13 05:58:23;;;;;;;;;;;;;;;21.34;nan;100124.28;5048909;28;19925;-78
2023/06/13 06:00:50;;;;;;;;;;;;;;;21.64;nan;100128.75;5034122;28;19928;-78
2023/06/13 06:03:15;;;;;;;;;;;;;;;22.18;nan;100261.34;5034261;28;20004;-78
2023/06/13 06:05:41;;;;;;;;;;;;;;;22.64;nan;100265.09;5035376;28;20013;-78
2023/06/13 06:08:06;;;;;;;;;;;;;;;23.08;nan;100268.13;5032855;28;20374;-77
2023/06/13 06:10:31;;;;;;;;;;;;;;;23.44;nan;100268.78;5048284;28;19924;-78
2023/06/13 06:12:56;;;;;;;;;;;;;;;23.65;nan;100274.53;5054230;28;19928;-77
2023/06/13 06:15:22;;;;;;;;;;;;;;;23.97;nan;100274.00;5051697;28;20326;-78
2023/06/13 06:17:47;;;;;;;;;;;;;;;24.16;nan;100270.75;5034453;28;19924;-79
2023/06/13 06:20:12;;;;;;;;;;;;;;;24.42;nan;100278.44;5035233;28;19925;-79
2023/06/13 06:22:38;;;;;;;;;;;;;;;24.68;nan;100277.72;5033233;28;19999;-78
2023/06/13 06:25:03;;;;;;;;;;;;;;;24.92;nan;100274.75;5032642;28;19917;-79
2023/06/13 06:27:28;;;;;;;;;;;;;;;25.01;nan;100278.66;5033468;28;20279;-79
2023/06/13 06:29:53;;;;;;;;;;;;;;;25.10;nan;100268.19;5050535;28;20138;-79
2023/06/13 06:32:19;;;;;;;;;;;;;;;25.23;nan;100269.72;5045702;28;19923;-79
2023/06/13 06:34:44;;;;;;;;;;;;;;;25.29;nan;100263.25;5046340;28;19917;-77
2023/06/13 06:37:09;;;;;;;;;;;;;;;25.50;nan;100273.22;5034670;28;19924;-79
2023/06/13 06:39:34;;;;;;;;;;;;;;;25.79;nan;100275.63;5034802;28;19917;-78
2023/06/13 06:42:02;;;;;;;;;;;;;;;26.01;nan;100270.94;5035486;28;20398;-78
2023/06/13 06:44:28;;;;;;;;;;;;;;;26.05;nan;100274.78;5038274;28;19921;-79
2023/06/13 06:46:53;;;;;;;;;;;;;;;26.03;nan;100279.63;5053334;28;19921;-81
2023/06/13 06:49:18;;;;;;;;;;;;;;;26.19;nan;100279.72;5047573;28;19927;-79
2023/06/13 06:51:43;;;;;;;;;;;;;;;26.66;nan;100268.09;5053528;28;20385;-78
2023/06/13 06:54:10;;;;;;;;;;;;;;;27.06;nan;100272.03;5053384;28;19970;-78
2023/06/13 06:56:35;;;;;;;;;;;;;;;27.19;nan;100273.41;5055357;28;19948;-79
2023/06/13 06:59:00;;;;;;;;;;;;;;;27.23;nan;100269.09;5056016;28;19995;-82
2023/06/13 07:01:26;;;;;;;;;;;;;;;26.83;nan;100282.25;5053675;28;20011;-80
2023/06/13 07:03:51;;;;;;;;;;;;;;;26.81;nan;100275.44;5054219;28;20000;-80
2023/06/13 07:06:16;;;;;;;;;;;;;;;26.90;nan;100274.66;5057925;28;20409;-81
2023/06/13 07:08:41;;;;;;;;;;;;;;;26.81;nan;100278.16;5057668;28;19917;-80
2023/06/13 07:11:07;;;;;;;;;;;;;;;27.14;nan;100279.63;5042355;28;20362;-80
2023/06/13 07:13:32;;;;;;;;;;;;;;;27.04;nan;100271.47;5037004;28;20012;-81
2023/06/13 07:15:59;;;;;;;;;;;;;;;26.92;nan;100270.91;5038802;28;19928;-81
2023/06/13 07:18:25;;;;;;;;;;;;;;;26.81;nan;100273.56;5047061;28;19964;-79
2023/06/13 07:20:50;;;;;;;;;;;;;;;26.99;nan;100266.03;5063103;28;19917;-80
2023/06/13 07:23:17;;;;;;;;;;;;;;;26.87;nan;100277.13;5058213;28;19952;-80
2023/06/13 07:25:43;;;;;;;;;;;;;;;26.86;nan;100276.31;5060212;28;19920;-81
2023/06/13 07:28:09;;;;;;;;;;;;;;;26.63;nan;100271.34;5059279;28;19928;-79
2023/06/13 07:30:34;;;;;;;;;;;;;;;26.61;nan;100276.19;5059376;28;19921;-78
2023/06/13 07:33:00;;;;;;;;;;;;;;;26.89;nan;100273.06;5060590;28;20021;-79
2023/06/13 07:35:25;;;;;;;;;;;;;;;27.19;nan;100265.25;5060875;28;19936;-81
2023/06/13 07:37:50;;;;;;;;;;;;;;;27.42;nan;100269.41;5062437;28;19917;-80
2023/06/13 07:40:16;;;;;;;;;;;;;;;27.28;nan;100258.25;5043768;28;19917;-79
2023/06/13 07:42:42;;;;;;;;;;;;;;;27.32;nan;100249.28;5044998;28;19944;-79
2023/06/13 07:45:07;;;;;;;;;;;;;;;27.49;nan;100257.19;5051385;28;20003;-82
2023/06/13 07:47:34;;;;;;;;;;;;;;;27.47;nan;100255.81;5049916;28;19940;-78
2023/06/13 07:49:59;;;;;;;;;;;;;;;27.52;nan;100245.75;5063693;28;19924;-80
2023/06/13 07:52:25;;;;;;;;;;;;;;;27.98;nan;100252.28;5058233;28;19984;-82
2023/06/13 07:54:52;;;;;;;;;;;;;;;28.12;nan;100239.75;5067045;28;19987;-82
2023/06/13 07:57:18;;;;;;;;;;;;;;;27.95;nan;100238.16;5052661;28;19924;-78
2023/06/13 07:59:44;;;;;;;;;;;;;;;27.95;nan;100231.91;5043260;28;19921;-81
2023/06/13 08:02:09;;;;;;;;;;;;;;;27.99;nan;100142.50;5033769;28;20344;-80
2023/06/13 08:04:34;;;;;;;;;;;;;;;28.19;nan;100131.53;5040012;28;19921;-80
2023/06/13 08:07:00;;;;;;;;;;;;;;;28.49;nan;100136.03;5039424;28;19921;-79
2023/06/13 08:09:25;;;;;;;;;;;;;;;28.54;nan;100130.56;5051725;28;19924;-79
2023/06/13 08:11:51;;;;;;;;;;;;;;;29.02;nan;100233.41;5050436;28;19921;-79
2023/06/13 08:14:16;;;;;;;;;;;;;;;29.56;nan;100235.22;5055875;28;19920;-79
2023/06/13 08:16:42;;;;;;;;;;;;;;;29.04;nan;100228.50;5055160;28;19963;-79
2023/06/13 08:19:08;;;;;;;;;;;;;;;28.52;nan;100222.50;5055441;28;20340;-79
2023/06/13 08:21:33;;;;;;;;;;;;;;;28.94;nan;100234.03;5055088;28;19932;-79
2023/06/13 08:24:01;;;;;;;;;;;;;;;28.85;nan;100232.97;5053647;28;20396;-79
2023/06/13 08:26:27;;;;;;;;;;;;;;;29.07;nan;100243.47;5049343;28;19940;-79
2023/06/13 08:28:53;;;;;;;;;;;;;;;29.26;nan;100216.41;5034007;28;19935;-79
2023/06/13 08:31:23;;;;;;;;;;;;;;;29.49;nan;100223.03;5034058;28;20020;-79
2023/06/13 08:33:51;;;;;;;;;;;;;;;29.64;nan;100214.72;5035946;28;19988;-79
2023/06/13 08:36:17;;;;;;;;;;;;;;;29.85;nan;100218.09;5035667;28;20306;-80
2023/06/13 08:38:42;;;;;;;;;;;;;;;30.52;nan;100212.72;5036064;28;19917;-81
2023/06/13 08:41:07;;;;;;;;;;;;;;;30.14;nan;100214.50;5047895;28;19951;-80
2023/06/13 08:43:33;;;;;;;;;;;;;;;30.12;nan;100209.34;5053892;28;19951;-81
2023/06/13 08:45:58;;;;;;;;;;;;;;;30.52;nan;100212.72;5053463;28;19932;-80
2023/06/13 08:48:23;;;;;;;;;;;;;;;30.13;nan;100219.16;5055884;28;19917;-79
2023/06/13 08:50:49;;;;;;;;;;;;;;;29.78;nan;100204.78;5056353;28;19967;-80
2023/06/13 08:53:15;;;;;;;;;;;;;;;30.16;nan;100210.41;5055816;28;20011;-80
2023/06/13 08:55:42;;;;;;;;;;;;;;;29.80;nan;100209.97;5056851;28;19920;-80
2023/06/13 08:58:09;;;;;;;;;;;;;;;29.72;nan;100208.66;5053871;28;19927;-80
2023/06/13 09:00:35;;;;;;;;;;;;;;;30.18;nan;100197.28;5048019;28;19970;-81
2023/06/13 09:03:01;;;;;;;;;;;;;;;30.54;nan;100201.53;5058282;28;19927;-82
2023/06/13 09:05:27;;;;;;;;;;;;;;;30.67;nan;100201.59;5060310;28;20056;-81
2023/06/13 09:07:53;;;;;;;;;;;;;;;30.38;nan;100203.63;5048002;28;20314;-80
2023/06/13 09:10:21;;;;;;;;;;;;;;;30.05;nan;100200.69;5042895;28;19928;-81
2023/06/13 09:12:46;;;;;;;;;;;;;;;30.26;nan;100204.03;5043631;28;19913;-80
2023/06/13 09:15:12;;;;;;;;;;;;;;;30.73;nan;100207.81;5039779;28;19932;-80
2023/06/13 09:17:37;;;;;;;;;;;;;;;30.90;nan;100193.66;5042765;28;19917;-81
2023/06/13 09:20:05;;;;;;;;;;;;;;;31.32;nan;100186.44;5057798;28;19943;-80
2023/06/13 09:22:33;;;;;;;;;;;;;;;32.06;nan;100188.44;5056874;28;20004;-81
2023/06/13 09:24:59;;;;;;;;;;;;;;;32.70;nan;100192.03;5056891;28;19940;-81
2023/06/13 09:27:25;;;;;;;;;;;;;;;33.08;nan;100197.22;5058706;28;20012;-81
2023/06/13 09:29:51;;;;;;;;;;;;;;;31.67;nan;100179.56;5058353;28;19917;-81
2023/06/13 09:32:18;;;;;;;;;;;;;;;31.53;nan;100185.03;5057563;28;19924;-81
2023/06/13 09:34:45;;;;;;;;;;;;;;;31.55;nan;100190.19;5056731;28;19921;-80
2023/06/13 09:37:11;;;;;;;;;;;;;;;31.05;nan;100195.34;5046230;28;19917;-79
2023/06/13 09:39:45;;;;;;;;;;;;;;;31.83;nan;100191.03;5035965;28;19983;-79
2023/06/13 09:42:10;;;;;;;;;;;;;;;32.90;nan;100184.50;5035287;28;20004;-79
2023/06/13 09:44:36;;;;;;;;;;;;;;;33.70;nan;100176.50;5037611;28;19936;-80
2023/06/13 09:47:01;;;;;;;;;;;;;;;33.27;nan;100172.34;5037616;28;20484;-79
2023/06/13 09:49:33;;;;;;;;;;;;;;;33.31;nan;100175.28;5056414;28;19920;-80
2023/06/13 09:52:01;;;;;;;;;;;;;;;33.29;nan;100169.31;5048247;28;20278;-80
2023/06/13 09:54:29;;;;;;;;;;;;;;;33.49;nan;100168.81;5036777;28;19916;-80
2023/06/13 09:56:55;;;;;;;;;;;;;;;33.45;nan;100178.75;5037796;28;19917;-80
2023/06/13 09:59:20;;;;;;;;;;;;;;;33.19;nan;100179.41;5041613;28;20193;-80
2023/06/13 10:01:49;;;;;;;;;;;;;;;32.69;nan;100167.72;5037894;28;19999;-79
2023/06/13 10:04:14;;;;;;;;;;;;;;;32.40;nan;100163.38;5052804;28;19928;-79
2023/06/13 10:06:40;;;;;;;;;;;;;;;32.82;nan;100166.03;5042275;28;20313;-82
2023/06/13 10:09:06;;;;;;;;;;;;;;;32.67;nan;100169.94;5042663;28;19936;-81
2023/06/13 10:11:34;;;;;;;;;;;;;;;31.82;nan;100161.25;5056147;28;19924;-79
2023/06/13 10:13:59;;;;;;;;;;;;;;;33.02;nan;100164.75;5057708;28;19924;-82
2023/06/13 10:16:25;;;;;;;;;;;;;;;33.24;nan;100159.28;5054901;28;19964;-78
2023/06/13 10:18:52;;;;;;;;;;;;;;;32.97;nan;100154.72;5057709;28;20373;-81
2023/06/13 10:21:18;;;;;;;;;;;;;;;33.69;nan;100151.00;5055978;28;20028;-80
2023/06/13 10:23:48;;;;;;;;;;;;;;;33.98;nan;100157.91;5056791;28;19924;-81
2023/06/13 10:26:22;;;;;;;;;;;;;;;33.33;nan;100143.72;5056029;28;19982;-81
2023/06/13 10:28:51;;;;;;;;;;;;;;;34.13;nan;100151.97;5060343;28;19928;-81
2023/06/13 10:31:30;;;;;;;;;;;;;;;35.16;nan;100165.31;5041519;28;19927;-81
2023/06/13 10:34:07;;;;;;;;;;;;;;;33.67;nan;100150.50;5041403;28;19948;-82
2023/06/13 10:36:32;;;;;;;;;;;;;;;33.53;nan;100147.03;5039447;28;19956;-81
2023/06/13 10:39:21;;;;;;;;;;;;;;;33.55;nan;100140.09;5037884;28;19921;-82
2023/06/13 10:41:51;;;;;;;;;;;;;;;34.13;nan;100137.47;5048468;28;19924;-81
2023/06/13 10:44:23;;;;;;;;;;;;;;;33.85;nan;100137.69;5045721;28;19921;-81
2023/06/13 10:46:49;;;;;;;;;;;;;;;33.75;nan;100141.53;5040219;28;20429;-79
2023/06/13 10:49:15;;;;;;;;;;;;;;;34.15;nan;100129.72;5059566;28;19917;-82
2023/06/13 10:51:45;;;;;;;;;;;;;;;34.37;nan;100126.03;5049402;28;19917;-80
2023/06/13 10:54:12;;;;;;;;;;;;;;;34.94;nan;100138.81;5047726;28;19917;-81
2023/06/13 10:56:39;;;;;;;;;;;;;;;35.51;nan;100125.59;5047722;28;19948;-81
2023/06/13 10:59:14;;;;;;;;;;;;;;;34.92;nan;100130.09;5064298;28;19932;-82
2023/06/13 11:01:40;;;;;;;;;;;;;;;35.32;nan;100138.94;5062384;28;19924;-83
2023/06/13 11:04:15;;;;;;;;;;;;;;;35.57;nan;100129.00;5060072;28;19917;-81
2023/06/13 11:06:42;;;;;;;;;;;;;;;36.30;nan;100133.50;5062836;28;19971;-81
2023/06/13 11:09:17;;;;;;;;;;;;;;;36.13;nan;100129.72;5071782;28;19917;-80
2023/06/13 11:11:44;;;;;;;;;;;;;;;35.70;nan;100117.00;5056254;28;20039;-79
2023/06/13 11:14:09;;;;;;;;;;;;;;;36.74;nan;100134.81;5055427;28;19952;-79
2023/06/13 11:16:36;;;;;;;;;;;;;;;35.96;nan;100120.75;5035752;28;20480;-80
2023/06/13 11:19:05;;;;;;;;;;;;;;;35.73;nan;100127.34;5038765;28;20107;-81
2023/06/13 11:21:30;;;;;;;;;;;;;;;35.80;nan;100131.50;5038915;28;19944;-80
2023/06/13 11:23:56;;;;;;;;;;;;;;;35.33;nan;100123.25;5035954;28;19921;-80
2023/06/13 11:26:21;;;;;;;;;;;;;;;35.59;nan;100134.16;5046445;28;19925;-79
2023/06/13 11:28:49;;;;;;;;;;;;;;;36.52;nan;100122.19;5037851;28;19926;-80
2023/06/13 11:31:15;;;;;;;;;;;;;;;37.20;nan;100113.63;5032529;28;19917;-80
2023/06/13 11:33:43;;;;;;;;;;;;;;;37.16;nan;100109.97;5038938;28;19943;-80
2023/06/13 11:36:09;;;;;;;;;;;;;;;37.04;nan;100111.81;5051426;28;19928;-80
2023/06/13 11:38:40;;;;;;;;;;;;;;;36.89;nan;100105.81;5051811;28;19925;-80
2023/06/13 11:41:05;;;;;;;;;;;;;;;36.23;nan;100101.03;5054025;28;19917;-79
2023/06/13 11:43:30;;;;;;;;;;;;;;;35.24;nan;100098.56;5052945;28;19923;-82
2023/06/13 11:45:57;;;;;;;;;;;;;;;35.99;nan;100093.34;5056189;28;19993;-81
2023/06/13 11:48:23;;;;;;;;;;;;;;;36.25;nan;100093.22;5055838;28;19925;-81
2023/06/13 11:50:49;;;;;;;;;;;;;;;36.42;nan;100108.78;5038539;28;20560;-81
2023/06/13 11:53:16;;;;;;;;;;;;;;;35.99;nan;100107.13;5047979;28;19936;-81
2023/06/13 11:55:41;;;;;;;;;;;;;;;35.94;nan;100097.09;5054498;28;19939;-81
2023/06/13 11:58:07;;;;;;;;;;;;;;;36.26;nan;100099.53;5036579;28;20011;-82
2023/06/13 12:00:53;;;;;;;;;;;;;;;35.02;nan;100091.31;5037595;28;19917;-82
2023/06/13 12:03:19;;;;;;;;;;;;;;;34.88;nan;100092.28;5040265;28;19928;-81
2023/06/13 12:05:45;;;;;;;;;;;;;;;35.80;nan;100090.25;5041613;28;20382;-82
2023/06/13 12:08:11;;;;;;;;;;;;;;;36.92;nan;100085.03;5058164;28;19920;-82
2023/06/13 12:10:37;;;;;;;;;;;;;;;37.67;nan;100078.53;5061553;28;19917;-81
2023/06/13 12:13:02;;;;;;;;;;;;;;;38.08;nan;100085.75;5059836;28;20394;-82
2023/06/13 12:15:27;;;;;;;;;;;;;;;37.85;nan;100071.59;5056764;28;19916;-83
2023/06/13 12:17:53;;;;;;;;;;;;;;;37.37;nan;100075.97;5059855;28;20126;-81
2023/06/13 12:20:21;;;;;;;;;;;;;;;36.47;nan;100075.56;5054266;28;19921;-81
2023/06/13 12:22:53;;;;;;;;;;;;;;;36.53;nan;100076.94;5054406;28;19917;-80
2023/06/13 12:25:18;;;;;;;;;;;;;;;36.32;nan;100074.22;5051820;28;19917;-81
2023/06/13 12:27:44;;;;;;;;;;;;;;;36.21;nan;100070.28;5051851;28;20333;-80
2023/06/13 12:30:11;;;;;;;;;;;;;;;35.39;nan;100072.47;5042299;28;19917;-80
2023/06/13 12:32:38;;;;;;;;;;;;;;;34.44;nan;100057.72;5032361;28;19921;-80
2023/06/13 12:35:03;;;;;;;;;;;;;;;34.40;nan;100060.34;5039045;28;19921;-81
2023/06/13 12:37:34;;;;;;;;;;;;;;;34.24;nan;100061.94;5046798;28;19928;-80
2023/06/13 12:40:07;;;;;;;;;;;;;;;33.59;nan;100058.88;5042468;28;20294;-79
2023/06/13 12:42:34;;;;;;;;;;;;;;;33.03;nan;100052.13;5032640;28;19928;-80
2023/06/13 12:44:59;;;;;;;;;;;;;;;32.26;nan;100042.22;5036005;28;19928;-80
2023/06/13 12:47:25;;;;;;;;;;;;;;;32.14;nan;100043.56;5044551;28;19924;-81
2023/06/13 12:49:50;;;;;;;;;;;;;;;32.01;nan;100038.91;5052742;28;19917;-79
2023/06/13 12:52:15;;;;;;;;;;;;;;;32.04;nan;100032.06;5052522;28;19939;-83
2023/06/13 12:54:40;;;;;;;;;;;;;;;31.00;nan;100035.13;5045895;28;19917;-81
2023/06/13 12:57:06;;;;;;;;;;;;;;;30.66;nan;100038.13;5047799;28;19943;-80